sensor_id;sensor_type;location;lat;lon;timestamp;P1;durP1;ratioP1;P2;durP2;ratioP2
12788;SDS011;6458;42.710;23.192;2023-12-29T00:02:05;29.23;;;15.30;;
12788;SDS011;6458;42.710;23.192;2023-12-29T00:04:31;21.03;;;14.23;;
12788;SDS011;6458;42.710;23.192;2023-12-29T00:07:00;28.33;;;14.83;;
12788;SDS011;6458;42.710;23.192;2023-12-29T00:09:27;25.93;;;15.57;;
12788;SDS011;6458;42.710;23.192;2023-12-29T00:11:54;22.77;;;15.30;;
12788;SDS011;6458;42.710;23.192;2023-12-29T00:14:20;21.50;;;13.90;;
12788;SDS011;6458;42.710;23.192;2023-12-29T00:16:47;23.57;;;15.73;;
12788;SDS011;6458;42.710;23.192;2023-12-29T00:19:14;24.47;;;15.60;;
12788;SDS011;6458;42.710;23.192;2023-12-29T00:21:40;21.03;;;13.23;;
12788;SDS011;6458;42.710;23.192;2023-12-29T00:24:09;16.87;;;11.77;;
12788;SDS011;6458;42.710;23.192;2023-12-29T00:26:35;20.30;;;13.23;;
12788;SDS011;6458;42.710;23.192;2023-12-29T00:29:02;19.17;;;12.30;;
12788;SDS011;6458;42.710;23.192;2023-12-29T00:31:31;18.13;;;12.27;;
12788;SDS011;6458;42.710;23.192;2023-12-29T00:33:57;13.10;;;9.97;;
12788;SDS011;6458;42.710;23.192;2023-12-29T00:36:24;14.27;;;10.83;;
12788;SDS011;6458;42.710;23.192;2023-12-29T00:38:51;15.60;;;10.20;;
12788;SDS011;6458;42.710;23.192;2023-12-29T00:41:20;13.87;;;9.33;;
12788;SDS011;6458;42.710;23.192;2023-12-29T00:43:46;19.50;;;12.60;;
12788;SDS011;6458;42.710;23.192;2023-12-29T00:46:13;21.60;;;12.73;;
12788;SDS011;6458;42.710;23.192;2023-12-29T00:48:40;18.13;;;12.10;;
12788;SDS011;6458;42.710;23.192;2023-12-29T00:51:07;14.00;;;11.57;;
12788;SDS011;6458;42.710;23.192;2023-12-29T00:53:34;23.67;;;13.70;;
12788;SDS011;6458;42.710;23.192;2023-12-29T00:56:09;23.03;;;15.80;;
12788;SDS011;6458;42.710;23.192;2023-12-29T00:58:37;26.10;;;15.90;;
12788;SDS011;6458;42.710;23.192;2023-12-29T01:01:05;23.53;;;14.90;;
12788;SDS011;6458;42.710;23.192;2023-12-29T01:03:33;30.53;;;16.43;;
12788;SDS011;6458;42.710;23.192;2023-12-29T01:05:59;26.30;;;15.07;;
12788;SDS011;6458;42.710;23.192;2023-12-29T01:08:29;26.97;;;14.97;;
12788;SDS011;6458;42.710;23.192;2023-12-29T01:10:56;28.23;;;14.87;;
12788;SDS011;6458;42.710;23.192;2023-12-29T01:13:22;23.03;;;14.93;;
12788;SDS011;6458;42.710;23.192;2023-12-29T01:15:50;24.97;;;15.73;;
12788;SDS011;6458;42.710;23.192;2023-12-29T01:18:17;32.77;;;16.47;;
12788;SDS011;6458;42.710;23.192;2023-12-29T01:20:44;26.03;;;16.73;;
12788;SDS011;6458;42.710;23.192;2023-12-29T01:23:10;27.67;;;16.87;;
12788;SDS011;6458;42.710;23.192;2023-12-29T01:25:37;28.07;;;16.13;;
12788;SDS011;6458;42.710;23.192;2023-12-29T01:28:04;22.80;;;16.43;;
12788;SDS011;6458;42.710;23.192;2023-12-29T01:30:30;28.63;;;16.70;;
12788;SDS011;6458;42.710;23.192;2023-12-29T01:32:59;27.07;;;17.07;;
12788;SDS011;6458;42.710;23.192;2023-12-29T01:35:25;30.33;;;17.83;;
12788;SDS011;6458;42.710;23.192;2023-12-29T01:37:52;29.07;;;18.40;;
12788;SDS011;6458;42.710;23.192;2023-12-29T01:40:20;28.13;;;17.90;;
12788;SDS011;6458;42.710;23.192;2023-12-29T01:42:47;25.73;;;17.57;;
12788;SDS011;6458;42.710;23.192;2023-12-29T01:45:18;28.90;;;16.07;;
12788;SDS011;6458;42.710;23.192;2023-12-29T01:47:46;22.37;;;14.70;;
12788;SDS011;6458;42.710;23.192;2023-12-29T01:50:14;24.53;;;14.07;;
12788;SDS011;6458;42.710;23.192;2023-12-29T01:52:42;30.37;;;16.30;;
12788;SDS011;6458;42.710;23.192;2023-12-29T01:55:10;28.73;;;14.50;;
12788;SDS011;6458;42.710;23.192;2023-12-29T01:57:39;20.23;;;13.87;;
12788;SDS011;6458;42.710;23.192;2023-12-29T02:00:06;21.53;;;14.53;;
12788;SDS011;6458;42.710;23.192;2023-12-29T02:02:33;24.70;;;16.23;;
12788;SDS011;6458;42.710;23.192;2023-12-29T02:05:00;25.83;;;16.20;;
12788;SDS011;6458;42.710;23.192;2023-12-29T02:07:28;23.73;;;15.10;;
12788;SDS011;6458;42.710;23.192;2023-12-29T02:09:56;24.63;;;14.97;;
12788;SDS011;6458;42.710;23.192;2023-12-29T02:12:23;24.30;;;13.47;;
12788;SDS011;6458;42.710;23.192;2023-12-29T02:14:50;24.40;;;13.57;;
12788;SDS011;6458;42.710;23.192;2023-12-29T02:17:20;19.73;;;13.43;;
12788;SDS011;6458;42.710;23.192;2023-12-29T02:19:48;27.50;;;19.07;;
12788;SDS011;6458;42.710;23.192;2023-12-29T02:22:16;23.07;;;16.27;;
12788;SDS011;6458;42.710;23.192;2023-12-29T02:24:46;18.70;;;15.60;;
12788;SDS011;6458;42.710;23.192;2023-12-29T02:27:18;29.37;;;18.03;;
12788;SDS011;6458;42.710;23.192;2023-12-29T02:29:47;27.43;;;18.83;;
12788;SDS011;6458;42.710;23.192;2023-12-29T02:32:15;30.63;;;21.60;;
12788;SDS011;6458;42.710;23.192;2023-12-29T02:34:43;21.77;;;13.60;;
12788;SDS011;6458;42.710;23.192;2023-12-29T02:37:10;19.50;;;14.43;;
12788;SDS011;6458;42.710;23.192;2023-12-29T02:39:38;20.53;;;15.17;;
12788;SDS011;6458;42.710;23.192;2023-12-29T02:42:06;26.90;;;17.20;;
12788;SDS011;6458;42.710;23.192;2023-12-29T02:44:33;28.83;;;15.47;;
12788;SDS011;6458;42.710;23.192;2023-12-29T02:47:00;21.17;;;12.27;;
12788;SDS011;6458;42.710;23.192;2023-12-29T02:49:29;34.77;;;24.63;;
12788;SDS011;6458;42.710;23.192;2023-12-29T02:51:56;35.60;;;24.93;;
12788;SDS011;6458;42.710;23.192;2023-12-29T02:54:22;36.40;;;26.50;;
12788;SDS011;6458;42.710;23.192;2023-12-29T02:56:49;25.40;;;16.07;;
12788;SDS011;6458;42.710;23.192;2023-12-29T02:59:17;34.43;;;17.60;;
12788;SDS011;6458;42.710;23.192;2023-12-29T03:01:44;31.97;;;19.13;;
12788;SDS011;6458;42.710;23.192;2023-12-29T03:04:11;30.10;;;17.17;;
12788;SDS011;6458;42.710;23.192;2023-12-29T03:06:39;20.93;;;14.33;;
12788;SDS011;6458;42.710;23.192;2023-12-29T03:09:06;32.53;;;16.90;;
12788;SDS011;6458;42.710;23.192;2023-12-29T03:11:33;26.13;;;15.80;;
12788;SDS011;6458;42.710;23.192;2023-12-29T03:13:59;25.87;;;15.60;;
12788;SDS011;6458;42.710;23.192;2023-12-29T03:16:27;31.13;;;17.13;;
12788;SDS011;6458;42.710;23.192;2023-12-29T03:18:54;24.33;;;14.80;;
12788;SDS011;6458;42.710;23.192;2023-12-29T03:21:21;18.93;;;13.50;;
12788;SDS011;6458;42.710;23.192;2023-12-29T03:23:48;21.33;;;14.37;;
12788;SDS011;6458;42.710;23.192;2023-12-29T03:26:15;23.50;;;15.53;;
12788;SDS011;6458;42.710;23.192;2023-12-29T03:28:41;23.27;;;14.90;;
12788;SDS011;6458;42.710;23.192;2023-12-29T03:31:08;22.23;;;14.73;;
12788;SDS011;6458;42.710;23.192;2023-12-29T03:33:36;22.77;;;14.20;;
12788;SDS011;6458;42.710;23.192;2023-12-29T03:36:03;25.13;;;16.33;;
12788;SDS011;6458;42.710;23.192;2023-12-29T03:38:30;26.10;;;16.43;;
12788;SDS011;6458;42.710;23.192;2023-12-29T03:40:58;24.93;;;15.53;;
12788;SDS011;6458;42.710;23.192;2023-12-29T03:43:25;27.77;;;17.63;;
12788;SDS011;6458;42.710;23.192;2023-12-29T03:45:52;27.83;;;17.60;;
12788;SDS011;6458;42.710;23.192;2023-12-29T03:48:19;23.47;;;15.80;;
12788;SDS011;6458;42.710;23.192;2023-12-29T03:50:48;22.17;;;16.10;;
12788;SDS011;6458;42.710;23.192;2023-12-29T03:53:15;27.70;;;16.07;;
12788;SDS011;6458;42.710;23.192;2023-12-29T03:55:42;21.93;;;15.53;;
12788;SDS011;6458;42.710;23.192;2023-12-29T03:58:08;27.67;;;18.23;;
12788;SDS011;6458;42.710;23.192;2023-12-29T04:00:35;27.30;;;16.20;;
12788;SDS011;6458;42.710;23.192;2023-12-29T04:03:03;23.50;;;15.43;;
12788;SDS011;6458;42.710;23.192;2023-12-29T04:05:30;23.93;;;14.53;;
12788;SDS011;6458;42.710;23.192;2023-12-29T04:07:58;28.33;;;15.50;;
12788;SDS011;6458;42.710;23.192;2023-12-29T04:10:24;21.83;;;14.10;;
12788;SDS011;6458;42.710;23.192;2023-12-29T04:12:51;31.43;;;22.13;;
12788;SDS011;6458;42.710;23.192;2023-12-29T04:15:18;31.90;;;23.10;;
12788;SDS011;6458;42.710;23.192;2023-12-29T04:17:44;39.50;;;24.43;;
12788;SDS011;6458;42.710;23.192;2023-12-29T04:20:11;40.60;;;26.43;;
12788;SDS011;6458;42.710;23.192;2023-12-29T04:22:38;44.90;;;28.50;;
12788;SDS011;6458;42.710;23.192;2023-12-29T04:25:06;41.00;;;26.53;;
12788;SDS011;6458;42.710;23.192;2023-12-29T04:27:33;30.93;;;17.27;;
12788;SDS011;6458;42.710;23.192;2023-12-29T04:30:00;32.17;;;18.63;;
12788;SDS011;6458;42.710;23.192;2023-12-29T04:32:26;28.87;;;17.27;;
12788;SDS011;6458;42.710;23.192;2023-12-29T04:34:53;28.93;;;17.90;;
12788;SDS011;6458;42.710;23.192;2023-12-29T04:37:20;29.13;;;17.07;;
12788;SDS011;6458;42.710;23.192;2023-12-29T04:39:47;35.60;;;26.07;;
12788;SDS011;6458;42.710;23.192;2023-12-29T04:42:15;35.27;;;25.93;;
12788;SDS011;6458;42.710;23.192;2023-12-29T04:44:43;37.30;;;25.83;;
12788;SDS011;6458;42.710;23.192;2023-12-29T04:47:09;37.43;;;24.97;;
12788;SDS011;6458;42.710;23.192;2023-12-29T04:49:36;34.87;;;26.27;;
12788;SDS011;6458;42.710;23.192;2023-12-29T04:52:04;41.43;;;30.37;;
12788;SDS011;6458;42.710;23.192;2023-12-29T04:54:31;44.80;;;33.63;;
12788;SDS011;6458;42.710;23.192;2023-12-29T04:56:57;44.27;;;28.00;;
12788;SDS011;6458;42.710;23.192;2023-12-29T04:59:26;39.23;;;28.27;;
12788;SDS011;6458;42.710;23.192;2023-12-29T05:01:53;32.17;;;19.07;;
12788;SDS011;6458;42.710;23.192;2023-12-29T05:04:19;37.93;;;27.97;;
12788;SDS011;6458;42.710;23.192;2023-12-29T05:06:46;39.03;;;27.87;;
12788;SDS011;6458;42.710;23.192;2023-12-29T05:09:13;25.43;;;15.80;;
12788;SDS011;6458;42.710;23.192;2023-12-29T05:11:40;24.37;;;14.33;;
12788;SDS011;6458;42.710;23.192;2023-12-29T05:14:06;22.20;;;14.30;;
12788;SDS011;6458;42.710;23.192;2023-12-29T05:16:35;20.60;;;12.50;;
12788;SDS011;6458;42.710;23.192;2023-12-29T05:19:01;37.90;;;24.40;;
12788;SDS011;6458;42.710;23.192;2023-12-29T05:21:28;40.10;;;27.07;;
12788;SDS011;6458;42.710;23.192;2023-12-29T05:23:56;38.77;;;26.70;;
12788;SDS011;6458;42.710;23.192;2023-12-29T05:26:22;247.07;;;40.67;;
12788;SDS011;6458;42.710;23.192;2023-12-29T05:28:49;223.90;;;36.70;;
12788;SDS011;6458;42.710;23.192;2023-12-29T05:31:16;479.70;;;45.88;;
12788;SDS011;6458;42.710;23.192;2023-12-29T05:33:44;32.13;;;22.30;;
12788;SDS011;6458;42.710;23.192;2023-12-29T05:36:11;38.42;;;25.02;;
12788;SDS011;6458;42.710;23.192;2023-12-29T05:38:37;49.90;;;26.27;;
12788;SDS011;6458;42.710;23.192;2023-12-29T05:41:06;41.70;;;26.55;;
12788;SDS011;6458;42.710;23.192;2023-12-29T05:43:33;33.60;;;26.80;;
12788;SDS011;6458;42.710;23.192;2023-12-29T05:46:00;48.13;;;27.33;;
12788;SDS011;6458;42.710;23.192;2023-12-29T05:48:27;38.30;;;26.58;;
12788;SDS011;6458;42.710;23.192;2023-12-29T05:50:55;47.93;;;27.37;;
12788;SDS011;6458;42.710;23.192;2023-12-29T05:53:22;123.73;;;28.87;;
12788;SDS011;6458;42.710;23.192;2023-12-29T05:55:52;284.00;;;37.17;;
12788;SDS011;6458;42.710;23.192;2023-12-29T05:58:18;83.13;;;26.23;;
12788;SDS011;6458;42.710;23.192;2023-12-29T06:00:45;210.60;;;31.55;;
12788;SDS011;6458;42.710;23.192;2023-12-29T06:03:12;318.67;;;39.25;;
12788;SDS011;6458;42.710;23.192;2023-12-29T06:05:39;223.18;;;41.70;;
12788;SDS011;6458;42.710;23.192;2023-12-29T06:08:07;205.55;;;37.17;;
12788;SDS011;6458;42.710;23.192;2023-12-29T06:10:35;183.60;;;34.70;;
12788;SDS011;6458;42.710;23.192;2023-12-29T06:13:02;127.73;;;35.07;;
12788;SDS011;6458;42.710;23.192;2023-12-29T06:15:29;99.67;;;35.13;;
12788;SDS011;6458;42.710;23.192;2023-12-29T06:17:56;43.13;;;28.63;;
12788;SDS011;6458;42.710;23.192;2023-12-29T06:20:23;48.23;;;29.17;;
12788;SDS011;6458;42.710;23.192;2023-12-29T06:22:50;49.03;;;30.97;;
12788;SDS011;6458;42.710;23.192;2023-12-29T06:25:18;43.50;;;30.70;;
12788;SDS011;6458;42.710;23.192;2023-12-29T06:27:45;47.97;;;30.80;;
12788;SDS011;6458;42.710;23.192;2023-12-29T06:30:12;46.73;;;29.90;;
12788;SDS011;6458;42.710;23.192;2023-12-29T06:32:39;45.87;;;29.53;;
12788;SDS011;6458;42.710;23.192;2023-12-29T06:35:06;44.33;;;30.00;;
12788;SDS011;6458;42.710;23.192;2023-12-29T06:37:35;44.13;;;30.73;;
12788;SDS011;6458;42.710;23.192;2023-12-29T06:40:02;45.53;;;30.07;;
12788;SDS011;6458;42.710;23.192;2023-12-29T06:42:31;46.47;;;30.30;;
12788;SDS011;6458;42.710;23.192;2023-12-29T06:44:57;51.67;;;33.87;;
12788;SDS011;6458;42.710;23.192;2023-12-29T06:47:24;55.60;;;34.40;;
12788;SDS011;6458;42.710;23.192;2023-12-29T06:49:51;48.73;;;31.97;;
12788;SDS011;6458;42.710;23.192;2023-12-29T06:52:18;44.80;;;26.43;;
12788;SDS011;6458;42.710;23.192;2023-12-29T06:54:44;41.60;;;22.33;;
12788;SDS011;6458;42.710;23.192;2023-12-29T06:57:11;32.27;;;20.40;;
12788;SDS011;6458;42.710;23.192;2023-12-29T06:59:41;30.77;;;18.27;;
12788;SDS011;6458;42.710;23.192;2023-12-29T07:02:08;25.27;;;16.80;;
12788;SDS011;6458;42.710;23.192;2023-12-29T07:04:34;33.30;;;20.30;;
12788;SDS011;6458;42.710;23.192;2023-12-29T07:07:03;24.77;;;15.30;;
12788;SDS011;6458;42.710;23.192;2023-12-29T07:09:29;28.37;;;18.63;;
12788;SDS011;6458;42.710;23.192;2023-12-29T07:11:56;30.03;;;19.23;;
12788;SDS011;6458;42.710;23.192;2023-12-29T07:14:23;29.57;;;16.63;;
12788;SDS011;6458;42.710;23.192;2023-12-29T07:16:51;27.60;;;17.63;;
12788;SDS011;6458;42.710;23.192;2023-12-29T07:19:18;25.00;;;16.27;;
12788;SDS011;6458;42.710;23.192;2023-12-29T07:21:45;27.37;;;17.33;;
12788;SDS011;6458;42.710;23.192;2023-12-29T07:24:12;24.33;;;15.77;;
12788;SDS011;6458;42.710;23.192;2023-12-29T07:26:39;27.93;;;16.93;;
12788;SDS011;6458;42.710;23.192;2023-12-29T07:29:06;23.70;;;16.00;;
12788;SDS011;6458;42.710;23.192;2023-12-29T07:31:33;28.07;;;16.70;;
12788;SDS011;6458;42.710;23.192;2023-12-29T07:34:01;25.20;;;16.47;;
12788;SDS011;6458;42.710;23.192;2023-12-29T07:36:28;33.97;;;17.67;;
12788;SDS011;6458;42.710;23.192;2023-12-29T07:38:54;24.97;;;16.73;;
12788;SDS011;6458;42.710;23.192;2023-12-29T07:41:21;27.27;;;19.20;;
12788;SDS011;6458;42.710;23.192;2023-12-29T07:43:48;21.20;;;14.70;;
12788;SDS011;6458;42.710;23.192;2023-12-29T07:46:23;21.33;;;14.40;;
12788;SDS011;6458;42.710;23.192;2023-12-29T07:48:50;23.93;;;16.03;;
12788;SDS011;6458;42.710;23.192;2023-12-29T07:51:19;27.97;;;18.30;;
12788;SDS011;6458;42.710;23.192;2023-12-29T07:53:45;25.10;;;15.83;;
12788;SDS011;6458;42.710;23.192;2023-12-29T07:56:12;24.60;;;16.57;;
12788;SDS011;6458;42.710;23.192;2023-12-29T07:58:39;24.60;;;18.03;;
12788;SDS011;6458;42.710;23.192;2023-12-29T08:01:05;37.97;;;28.47;;
12788;SDS011;6458;42.710;23.192;2023-12-29T08:03:32;24.53;;;19.07;;
12788;SDS011;6458;42.710;23.192;2023-12-29T08:05:59;30.80;;;23.67;;
12788;SDS011;6458;42.710;23.192;2023-12-29T08:08:27;39.50;;;24.03;;
12788;SDS011;6458;42.710;23.192;2023-12-29T08:10:54;40.37;;;22.90;;
12788;SDS011;6458;42.710;23.192;2023-12-29T08:13:21;30.87;;;21.67;;
12788;SDS011;6458;42.710;23.192;2023-12-29T08:15:47;24.93;;;17.97;;
12788;SDS011;6458;42.710;23.192;2023-12-29T08:18:14;31.60;;;18.03;;
12788;SDS011;6458;42.710;23.192;2023-12-29T08:20:41;29.47;;;19.00;;
12788;SDS011;6458;42.710;23.192;2023-12-29T08:23:08;33.60;;;18.63;;
12788;SDS011;6458;42.710;23.192;2023-12-29T08:25:37;27.33;;;17.37;;
12788;SDS011;6458;42.710;23.192;2023-12-29T08:28:04;25.37;;;18.17;;
12788;SDS011;6458;42.710;23.192;2023-12-29T08:30:33;31.60;;;19.10;;
12788;SDS011;6458;42.710;23.192;2023-12-29T08:33:00;24.93;;;16.77;;
12788;SDS011;6458;42.710;23.192;2023-12-29T08:35:27;26.50;;;17.00;;
12788;SDS011;6458;42.710;23.192;2023-12-29T08:37:53;34.60;;;23.90;;
12788;SDS011;6458;42.710;23.192;2023-12-29T08:40:20;59.63;;;31.80;;
12788;SDS011;6458;42.710;23.192;2023-12-29T08:42:48;40.23;;;25.43;;
12788;SDS011;6458;42.710;23.192;2023-12-29T08:45:15;30.87;;;21.00;;
12788;SDS011;6458;42.710;23.192;2023-12-29T08:47:41;30.13;;;21.77;;
12788;SDS011;6458;42.710;23.192;2023-12-29T08:50:08;29.90;;;18.67;;
12788;SDS011;6458;42.710;23.192;2023-12-29T08:52:35;30.20;;;19.17;;
12788;SDS011;6458;42.710;23.192;2023-12-29T08:55:02;27.50;;;17.80;;
12788;SDS011;6458;42.710;23.192;2023-12-29T08:57:28;69.37;;;46.00;;
12788;SDS011;6458;42.710;23.192;2023-12-29T08:59:57;30.27;;;17.97;;
12788;SDS011;6458;42.710;23.192;2023-12-29T09:02:23;26.43;;;17.00;;
12788;SDS011;6458;42.710;23.192;2023-12-29T09:04:50;29.33;;;16.93;;
12788;SDS011;6458;42.710;23.192;2023-12-29T09:07:17;26.70;;;17.70;;
12788;SDS011;6458;42.710;23.192;2023-12-29T09:09:44;28.83;;;19.20;;
12788;SDS011;6458;42.710;23.192;2023-12-29T09:12:10;26.27;;;17.53;;
12788;SDS011;6458;42.710;23.192;2023-12-29T09:14:40;28.47;;;21.03;;
12788;SDS011;6458;42.710;23.192;2023-12-29T09:17:08;26.17;;;21.83;;
12788;SDS011;6458;42.710;23.192;2023-12-29T09:19:35;29.07;;;21.10;;
12788;SDS011;6458;42.710;23.192;2023-12-29T09:22:14;28.43;;;19.83;;
12788;SDS011;6458;42.710;23.192;2023-12-29T09:24:41;30.47;;;20.40;;
12788;SDS011;6458;42.710;23.192;2023-12-29T09:27:08;22.97;;;17.53;;
12788;SDS011;6458;42.710;23.192;2023-12-29T09:29:35;22.77;;;16.77;;
12788;SDS011;6458;42.710;23.192;2023-12-29T09:32:03;25.13;;;18.20;;
12788;SDS011;6458;42.710;23.192;2023-12-29T09:34:31;26.53;;;20.23;;
12788;SDS011;6458;42.710;23.192;2023-12-29T09:39:53;30.67;;;22.10;;
12788;SDS011;6458;42.710;23.192;2023-12-29T09:42:20;28.17;;;20.73;;
12788;SDS011;6458;42.710;23.192;2023-12-29T09:44:49;32.63;;;20.40;;
12788;SDS011;6458;42.710;23.192;2023-12-29T09:47:16;31.30;;;22.63;;
12788;SDS011;6458;42.710;23.192;2023-12-29T09:49:45;28.50;;;22.23;;
12788;SDS011;6458;42.710;23.192;2023-12-29T09:55:14;32.40;;;20.73;;
12788;SDS011;6458;42.710;23.192;2023-12-29T09:57:40;27.37;;;18.63;;
12788;SDS011;6458;42.710;23.192;2023-12-29T10:00:09;28.90;;;19.80;;
12788;SDS011;6458;42.710;23.192;2023-12-29T10:02:36;31.10;;;20.73;;
12788;SDS011;6458;42.710;23.192;2023-12-29T10:05:05;32.20;;;22.17;;
12788;SDS011;6458;42.710;23.192;2023-12-29T10:07:36;33.10;;;22.20;;
12788;SDS011;6458;42.710;23.192;2023-12-29T10:10:03;33.93;;;21.60;;
12788;SDS011;6458;42.710;23.192;2023-12-29T10:12:31;38.37;;;24.20;;
12788;SDS011;6458;42.710;23.192;2023-12-29T10:15:01;45.87;;;28.17;;
12788;SDS011;6458;42.710;23.192;2023-12-29T10:17:34;47.50;;;29.37;;
12788;SDS011;6458;42.710;23.192;2023-12-29T10:20:08;47.97;;;32.20;;
12788;SDS011;6458;42.710;23.192;2023-12-29T10:22:40;51.47;;;30.97;;
12788;SDS011;6458;42.710;23.192;2023-12-29T10:25:09;52.43;;;34.40;;
12788;SDS011;6458;42.710;23.192;2023-12-29T10:27:36;51.83;;;34.27;;
12788;SDS011;6458;42.710;23.192;2023-12-29T10:30:03;47.27;;;34.97;;
12788;SDS011;6458;42.710;23.192;2023-12-29T10:32:29;48.60;;;33.50;;
12788;SDS011;6458;42.710;23.192;2023-12-29T10:35:08;45.33;;;31.10;;
12788;SDS011;6458;42.710;23.192;2023-12-29T10:37:36;49.90;;;30.93;;
12788;SDS011;6458;42.710;23.192;2023-12-29T10:40:03;43.53;;;31.33;;
12788;SDS011;6458;42.710;23.192;2023-12-29T10:42:29;53.43;;;34.00;;
12788;SDS011;6458;42.710;23.192;2023-12-29T10:45:04;51.20;;;33.57;;
12788;SDS011;6458;42.710;23.192;2023-12-29T10:47:31;50.57;;;33.97;;
12788;SDS011;6458;42.710;23.192;2023-12-29T10:49:58;47.83;;;30.17;;
12788;SDS011;6458;42.710;23.192;2023-12-29T10:52:27;45.13;;;33.00;;
12788;SDS011;6458;42.710;23.192;2023-12-29T10:55:03;49.67;;;34.10;;
12788;SDS011;6458;42.710;23.192;2023-12-29T10:57:31;56.90;;;34.67;;
12788;SDS011;6458;42.710;23.192;2023-12-29T10:59:58;50.80;;;34.70;;
12788;SDS011;6458;42.710;23.192;2023-12-29T11:02:25;49.10;;;34.23;;
12788;SDS011;6458;42.710;23.192;2023-12-29T11:04:51;54.33;;;37.87;;
12788;SDS011;6458;42.710;23.192;2023-12-29T11:07:32;53.27;;;36.20;;
12788;SDS011;6458;42.710;23.192;2023-12-29T11:09:59;51.77;;;37.37;;
12788;SDS011;6458;42.710;23.192;2023-12-29T11:12:26;60.27;;;38.77;;
12788;SDS011;6458;42.710;23.192;2023-12-29T11:14:53;56.43;;;38.43;;
12788;SDS011;6458;42.710;23.192;2023-12-29T11:17:20;56.23;;;39.03;;
12788;SDS011;6458;42.710;23.192;2023-12-29T11:19:47;56.10;;;38.90;;
12788;SDS011;6458;42.710;23.192;2023-12-29T11:22:14;64.30;;;40.73;;
12788;SDS011;6458;42.710;23.192;2023-12-29T11:24:43;54.20;;;38.87;;
12788;SDS011;6458;42.710;23.192;2023-12-29T11:27:12;51.70;;;37.60;;
12788;SDS011;6458;42.710;23.192;2023-12-29T11:29:39;66.10;;;42.20;;
12788;SDS011;6458;42.710;23.192;2023-12-29T11:32:08;67.77;;;41.93;;
12788;SDS011;6458;42.710;23.192;2023-12-29T11:34:39;61.33;;;39.97;;
12788;SDS011;6458;42.710;23.192;2023-12-29T11:37:09;62.50;;;39.40;;
12788;SDS011;6458;42.710;23.192;2023-12-29T11:39:38;57.73;;;39.13;;
12788;SDS011;6458;42.710;23.192;2023-12-29T11:42:12;51.47;;;35.77;;
12788;SDS011;6458;42.710;23.192;2023-12-29T11:44:40;49.27;;;34.90;;
12788;SDS011;6458;42.710;23.192;2023-12-29T11:47:08;46.03;;;30.47;;
12788;SDS011;6458;42.710;23.192;2023-12-29T11:50:00;40.23;;;29.57;;
12788;SDS011;6458;42.710;23.192;2023-12-29T11:52:33;43.10;;;32.17;;
12788;SDS011;6458;42.710;23.192;2023-12-29T11:55:07;45.97;;;30.43;;
12788;SDS011;6458;42.710;23.192;2023-12-29T11:57:35;42.03;;;28.07;;
12788;SDS011;6458;42.710;23.192;2023-12-29T12:03:15;39.93;;;28.67;;
12788;SDS011;6458;42.710;23.192;2023-12-29T12:05:45;33.80;;;25.07;;
12788;SDS011;6458;42.710;23.192;2023-12-29T12:08:15;38.37;;;25.57;;
12788;SDS011;6458;42.710;23.192;2023-12-29T12:10:52;31.40;;;22.17;;
12788;SDS011;6458;42.710;23.192;2023-12-29T12:16:02;39.53;;;25.77;;
12788;SDS011;6458;42.710;23.192;2023-12-29T12:18:29;37.27;;;25.67;;
12788;SDS011;6458;42.710;23.192;2023-12-29T12:20:56;29.43;;;20.53;;
12788;SDS011;6458;42.710;23.192;2023-12-29T12:23:23;33.87;;;23.83;;
12788;SDS011;6458;42.710;23.192;2023-12-29T12:25:51;31.33;;;21.40;;
12788;SDS011;6458;42.710;23.192;2023-12-29T12:28:24;32.50;;;21.57;;
12788;SDS011;6458;42.710;23.192;2023-12-29T12:30:51;32.50;;;20.10;;
12788;SDS011;6458;42.710;23.192;2023-12-29T12:33:20;22.37;;;15.03;;
12788;SDS011;6458;42.710;23.192;2023-12-29T12:35:58;18.90;;;14.43;;
12788;SDS011;6458;42.710;23.192;2023-12-29T12:38:25;27.40;;;18.67;;
12788;SDS011;6458;42.710;23.192;2023-12-29T12:40:52;33.30;;;21.53;;
12788;SDS011;6458;42.710;23.192;2023-12-29T12:43:19;35.87;;;23.40;;
12788;SDS011;6458;42.710;23.192;2023-12-29T12:45:47;28.87;;;19.97;;
12788;SDS011;6458;42.710;23.192;2023-12-29T12:48:14;25.63;;;20.50;;
12788;SDS011;6458;42.710;23.192;2023-12-29T12:50:55;30.63;;;22.40;;
12788;SDS011;6458;42.710;23.192;2023-12-29T12:53:26;25.60;;;18.40;;
12788;SDS011;6458;42.710;23.192;2023-12-29T13:02:16;18.90;;;13.83;;
12788;SDS011;6458;42.710;23.192;2023-12-29T13:06:01;19.87;;;14.27;;
12788;SDS011;6458;42.710;23.192;2023-12-29T15:00:21;7.77;;;5.67;;
12788;SDS011;6458;42.710;23.192;2023-12-29T15:19:52;24.77;;;13.60;;
12788;SDS011;6458;42.710;23.192;2023-12-29T15:25:57;30.63;;;18.07;;
12788;SDS011;6458;42.710;23.192;2023-12-29T15:28:57;41.17;;;24.20;;
12788;SDS011;6458;42.710;23.192;2023-12-29T15:39:10;51.57;;;31.83;;
12788;SDS011;6458;42.710;23.192;2023-12-29T15:42:18;48.87;;;25.63;;
12788;SDS011;6458;42.710;23.192;2023-12-29T15:45:06;47.60;;;25.57;;
12788;SDS011;6458;42.710;23.192;2023-12-29T15:47:51;42.07;;;26.57;;
12788;SDS011;6458;42.710;23.192;2023-12-29T15:50:21;34.10;;;20.97;;
12788;SDS011;6458;42.710;23.192;2023-12-29T15:52:55;54.30;;;29.80;;
12788;SDS011;6458;42.710;23.192;2023-12-29T15:58:42;48.53;;;26.07;;
12788;SDS011;6458;42.710;23.192;2023-12-29T16:01:20;31.17;;;21.10;;
12788;SDS011;6458;42.710;23.192;2023-12-29T16:03:50;30.40;;;19.73;;
12788;SDS011;6458;42.710;23.192;2023-12-29T16:06:18;33.80;;;23.87;;
12788;SDS011;6458;42.710;23.192;2023-12-29T16:08:54;38.17;;;23.93;;
12788;SDS011;6458;42.710;23.192;2023-12-29T16:11:27;38.50;;;24.93;;
12788;SDS011;6458;42.710;23.192;2023-12-29T16:13:56;39.27;;;21.33;;
12788;SDS011;6458;42.710;23.192;2023-12-29T16:16:27;55.57;;;31.13;;
12788;SDS011;6458;42.710;23.192;2023-12-29T16:18:55;33.40;;;20.93;;
12788;SDS011;6458;42.710;23.192;2023-12-29T16:21:22;19.33;;;15.20;;
12788;SDS011;6458;42.710;23.192;2023-12-29T16:23:49;28.70;;;16.63;;
12788;SDS011;6458;42.710;23.192;2023-12-29T16:26:16;20.40;;;13.20;;
12788;SDS011;6458;42.710;23.192;2023-12-29T16:28:43;19.00;;;14.33;;
12788;SDS011;6458;42.710;23.192;2023-12-29T16:31:12;72.07;;;41.17;;
12788;SDS011;6458;42.710;23.192;2023-12-29T16:33:39;31.40;;;20.57;;
12788;SDS011;6458;42.710;23.192;2023-12-29T16:36:07;27.50;;;17.07;;
12788;SDS011;6458;42.710;23.192;2023-12-29T16:38:35;30.00;;;18.57;;
12788;SDS011;6458;42.710;23.192;2023-12-29T16:41:14;25.30;;;18.97;;
12788;SDS011;6458;42.710;23.192;2023-12-29T16:43:42;17.47;;;12.93;;
12788;SDS011;6458;42.710;23.192;2023-12-29T16:46:09;23.53;;;16.50;;
12788;SDS011;6458;42.710;23.192;2023-12-29T16:48:41;19.43;;;14.27;;
12788;SDS011;6458;42.710;23.192;2023-12-29T16:51:08;24.20;;;21.60;;
12788;SDS011;6458;42.710;23.192;2023-12-29T16:53:36;20.37;;;15.00;;
12788;SDS011;6458;42.710;23.192;2023-12-29T16:56:04;16.33;;;12.77;;
12788;SDS011;6458;42.710;23.192;2023-12-29T16:58:32;23.47;;;17.90;;
12788;SDS011;6458;42.710;23.192;2023-12-29T17:00:59;34.70;;;25.80;;
12788;SDS011;6458;42.710;23.192;2023-12-29T17:03:26;33.20;;;24.77;;
12788;SDS011;6458;42.710;23.192;2023-12-29T17:05:56;36.20;;;25.60;;
12788;SDS011;6458;42.710;23.192;2023-12-29T17:08:25;41.90;;;29.17;;
12788;SDS011;6458;42.710;23.192;2023-12-29T17:10:54;40.53;;;32.43;;